sensor_id;sensor_type;location;lat;lon;timestamp;P1;durP1;ratioP1;P2;durP2;ratioP2
46042;SDS011;32533;-33.854;18.542;2022-08-19T00:01:46;3.25;;;1.55;;
46042;SDS011;32533;-33.854;18.542;2022-08-19T00:04:16;8.35;;;1.48;;
46042;SDS011;32533;-33.854;18.542;2022-08-19T00:06:45;5.32;;;1.65;;
46042;SDS011;32533;-33.854;18.542;2022-08-19T00:09:13;7.00;;;2.40;;
46042;SDS011;32533;-33.854;18.542;2022-08-19T00:11:41;5.30;;;1.63;;
46042;SDS011;32533;-33.854;18.542;2022-08-19T00:14:10;5.15;;;1.38;;
46042;SDS011;32533;-33.854;18.542;2022-08-19T00:16:38;4.15;;;1.77;;
46042;SDS011;32533;-33.854;18.542;2022-08-19T00:19:43;9.13;;;1.45;;
46042;SDS011;32533;-33.854;18.542;2022-08-19T00:22:09;7.68;;;3.70;;
46042;SDS011;32533;-33.854;18.542;2022-08-19T00:24:35;9.82;;;2.28;;
46042;SDS011;32533;-33.854;18.542;2022-08-19T00:27:03;2.33;;;0.82;;
46042;SDS011;32533;-33.854;18.542;2022-08-19T00:29:30;9.05;;;1.90;;
46042;SDS011;32533;-33.854;18.542;2022-08-19T00:31:57;6.03;;;1.25;;
46042;SDS011;32533;-33.854;18.542;2022-08-19T00:34:25;7.05;;;1.92;;
46042;SDS011;32533;-33.854;18.542;2022-08-19T00:36:55;4.00;;;1.30;;
46042;SDS011;32533;-33.854;18.542;2022-08-19T00:39:23;6.07;;;2.17;;
46042;SDS011;32533;-33.854;18.542;2022-08-19T00:41:49;3.88;;;1.95;;
46042;SDS011;32533;-33.854;18.542;2022-08-19T00:44:26;10.63;;;1.80;;
46042;SDS011;32533;-33.854;18.542;2022-08-19T00:46:55;3.05;;;1.63;;
46042;SDS011;32533;-33.854;18.542;2022-08-19T00:49:31;6.68;;;2.50;;
46042;SDS011;32533;-33.854;18.542;2022-08-19T00:52:09;4.90;;;1.60;;
46042;SDS011;32533;-33.854;18.542;2022-08-19T00:54:42;10.48;;;1.77;;
46042;SDS011;32533;-33.854;18.542;2022-08-19T00:57:12;6.95;;;1.40;;
46042;SDS011;32533;-33.854;18.542;2022-08-19T00:59:42;10.18;;;2.05;;
46042;SDS011;32533;-33.854;18.542;2022-08-19T01:02:11;9.18;;;2.53;;
46042;SDS011;32533;-33.854;18.542;2022-08-19T01:04:38;17.67;;;2.97;;
46042;SDS011;32533;-33.854;18.542;2022-08-19T01:07:04;9.30;;;1.35;;
46042;SDS011;32533;-33.854;18.542;2022-08-19T01:09:32;6.38;;;2.10;;
46042;SDS011;32533;-33.854;18.542;2022-08-19T01:11:59;7.15;;;2.30;;
46042;SDS011;32533;-33.854;18.542;2022-08-19T01:14:26;5.80;;;2.08;;
46042;SDS011;32533;-33.854;18.542;2022-08-19T01:16:53;9.45;;;1.70;;
46042;SDS011;32533;-33.854;18.542;2022-08-19T01:19:33;9.43;;;2.45;;
46042;SDS011;32533;-33.854;18.542;2022-08-19T01:22:05;9.93;;;3.05;;
46042;SDS011;32533;-33.854;18.542;2022-08-19T01:24:42;7.68;;;1.70;;
46042;SDS011;32533;-33.854;18.542;2022-08-19T01:27:09;7.72;;;2.85;;
46042;SDS011;32533;-33.854;18.542;2022-08-19T01:29:38;8.10;;;1.33;;
46042;SDS011;32533;-33.854;18.542;2022-08-19T01:32:06;8.25;;;2.10;;
46042;SDS011;32533;-33.854;18.542;2022-08-19T01:34:37;4.45;;;1.20;;
46042;SDS011;32533;-33.854;18.542;2022-08-19T01:37:11;4.80;;;1.25;;
46042;SDS011;32533;-33.854;18.542;2022-08-19T01:39:39;10.40;;;1.85;;
46042;SDS011;32533;-33.854;18.542;2022-08-19T01:42:07;5.35;;;1.83;;
46042;SDS011;32533;-33.854;18.542;2022-08-19T01:44:37;2.42;;;1.35;;
46042;SDS011;32533;-33.854;18.542;2022-08-19T01:47:06;1.98;;;1.17;;
46042;SDS011;32533;-33.854;18.542;2022-08-19T01:49:35;9.10;;;3.05;;
46042;SDS011;32533;-33.854;18.542;2022-08-19T01:52:02;6.22;;;2.17;;
46042;SDS011;32533;-33.854;18.542;2022-08-19T01:54:29;6.78;;;1.65;;
46042;SDS011;32533;-33.854;18.542;2022-08-19T01:57:14;4.68;;;1.80;;
46042;SDS011;32533;-33.854;18.542;2022-08-19T01:59:41;3.65;;;1.48;;
46042;SDS011;32533;-33.854;18.542;2022-08-19T02:02:09;11.45;;;2.47;;
46042;SDS011;32533;-33.854;18.542;2022-08-19T02:04:36;6.13;;;1.40;;
46042;SDS011;32533;-33.854;18.542;2022-08-19T02:07:06;3.75;;;0.90;;
46042;SDS011;32533;-33.854;18.542;2022-08-19T02:09:33;6.38;;;1.30;;
46042;SDS011;32533;-33.854;18.542;2022-08-19T02:11:59;4.90;;;1.08;;
46042;SDS011;32533;-33.854;18.542;2022-08-19T02:14:26;9.00;;;1.45;;
46042;SDS011;32533;-33.854;18.542;2022-08-19T02:16:52;6.88;;;1.90;;
46042;SDS011;32533;-33.854;18.542;2022-08-19T02:19:19;8.43;;;1.45;;
46042;SDS011;32533;-33.854;18.542;2022-08-19T02:21:45;4.25;;;0.98;;
46042;SDS011;32533;-33.854;18.542;2022-08-19T02:24:12;3.15;;;1.38;;
46042;SDS011;32533;-33.854;18.542;2022-08-19T02:26:38;8.75;;;2.25;;
46042;SDS011;32533;-33.854;18.542;2022-08-19T02:29:05;14.15;;;1.73;;
46042;SDS011;32533;-33.854;18.542;2022-08-19T02:31:31;10.77;;;3.10;;
46042;SDS011;32533;-33.854;18.542;2022-08-19T02:33:58;4.50;;;1.40;;
46042;SDS011;32533;-33.854;18.542;2022-08-19T02:36:26;13.35;;;1.83;;
46042;SDS011;32533;-33.854;18.542;2022-08-19T02:38:53;4.80;;;1.67;;
46042;SDS011;32533;-33.854;18.542;2022-08-19T02:41:21;3.08;;;1.02;;
46042;SDS011;32533;-33.854;18.542;2022-08-19T02:43:49;3.80;;;1.17;;
46042;SDS011;32533;-33.854;18.542;2022-08-19T02:46:23;5.97;;;1.73;;
46042;SDS011;32533;-33.854;18.542;2022-08-19T02:48:54;5.63;;;1.75;;
46042;SDS011;32533;-33.854;18.542;2022-08-19T02:51:23;2.85;;;0.80;;
46042;SDS011;32533;-33.854;18.542;2022-08-19T02:53:55;4.03;;;1.42;;
46042;SDS011;32533;-33.854;18.542;2022-08-19T02:56:21;5.57;;;1.20;;
46042;SDS011;32533;-33.854;18.542;2022-08-19T02:58:50;10.88;;;2.53;;
46042;SDS011;32533;-33.854;18.542;2022-08-19T03:01:23;3.75;;;1.10;;
46042;SDS011;32533;-33.854;18.542;2022-08-19T03:03:52;1.83;;;1.33;;
46042;SDS011;32533;-33.854;18.542;2022-08-19T03:06:19;7.47;;;1.55;;
46042;SDS011;32533;-33.854;18.542;2022-08-19T03:08:47;4.78;;;1.90;;
46042;SDS011;32533;-33.854;18.542;2022-08-19T03:13:42;9.85;;;1.40;;
46042;SDS011;32533;-33.854;18.542;2022-08-19T03:16:09;5.78;;;2.10;;
46042;SDS011;32533;-33.854;18.542;2022-08-19T03:18:36;4.38;;;1.67;;
46042;SDS011;32533;-33.854;18.542;2022-08-19T03:21:04;2.78;;;1.02;;
46042;SDS011;32533;-33.854;18.542;2022-08-19T03:23:31;7.85;;;1.63;;
46042;SDS011;32533;-33.854;18.542;2022-08-19T03:25:58;5.43;;;1.17;;
46042;SDS011;32533;-33.854;18.542;2022-08-19T03:28:29;9.18;;;1.88;;
46042;SDS011;32533;-33.854;18.542;2022-08-19T03:31:00;6.22;;;1.23;;
46042;SDS011;32533;-33.854;18.542;2022-08-19T03:33:29;6.70;;;1.67;;
46042;SDS011;32533;-33.854;18.542;2022-08-19T03:38:36;6.45;;;1.30;;
46042;SDS011;32533;-33.854;18.542;2022-08-19T03:41:05;7.93;;;1.27;;
46042;SDS011;32533;-33.854;18.542;2022-08-19T03:43:35;3.42;;;0.90;;
46042;SDS011;32533;-33.854;18.542;2022-08-19T03:46:07;13.15;;;1.40;;
46042;SDS011;32533;-33.854;18.542;2022-08-19T03:48:41;10.23;;;2.65;;
46042;SDS011;32533;-33.854;18.542;2022-08-19T03:51:18;8.93;;;1.83;;
46042;SDS011;32533;-33.854;18.542;2022-08-19T03:53:47;39.97;;;4.70;;
46042;SDS011;32533;-33.854;18.542;2022-08-19T03:56:14;9.02;;;1.60;;
46042;SDS011;32533;-33.854;18.542;2022-08-19T03:58:41;9.43;;;1.30;;
46042;SDS011;32533;-33.854;18.542;2022-08-19T04:01:10;7.72;;;1.25;;
46042;SDS011;32533;-33.854;18.542;2022-08-19T04:03:39;20.25;;;1.27;;
46042;SDS011;32533;-33.854;18.542;2022-08-19T04:06:10;13.50;;;7.18;;
46042;SDS011;32533;-33.854;18.542;2022-08-19T04:08:39;20.42;;;12.57;;
46042;SDS011;32533;-33.854;18.542;2022-08-19T04:11:10;15.55;;;8.52;;
46042;SDS011;32533;-33.854;18.542;2022-08-19T04:13:39;7.88;;;4.25;;
46042;SDS011;32533;-33.854;18.542;2022-08-19T04:16:07;7.50;;;2.90;;
46042;SDS011;32533;-33.854;18.542;2022-08-19T04:18:35;4.40;;;1.58;;
46042;SDS011;32533;-33.854;18.542;2022-08-19T04:21:03;6.18;;;2.03;;
46042;SDS011;32533;-33.854;18.542;2022-08-19T04:23:31;5.53;;;2.53;;
46042;SDS011;32533;-33.854;18.542;2022-08-19T04:25:58;4.07;;;1.02;;
46042;SDS011;32533;-33.854;18.542;2022-08-19T04:28:24;2.50;;;0.80;;
46042;SDS011;32533;-33.854;18.542;2022-08-19T04:30:52;7.20;;;0.90;;
46042;SDS011;32533;-33.854;18.542;2022-08-19T04:33:21;5.72;;;0.82;;
46042;SDS011;32533;-33.854;18.542;2022-08-19T04:35:49;6.18;;;1.15;;
46042;SDS011;32533;-33.854;18.542;2022-08-19T04:38:18;19.98;;;12.20;;
46042;SDS011;32533;-33.854;18.542;2022-08-19T04:40:49;33.47;;;21.65;;
46042;SDS011;32533;-33.854;18.542;2022-08-19T04:43:35;21.90;;;13.93;;
46042;SDS011;32533;-33.854;18.542;2022-08-19T04:46:10;13.18;;;8.55;;
46042;SDS011;32533;-33.854;18.542;2022-08-19T04:48:38;7.73;;;4.17;;
46042;SDS011;32533;-33.854;18.542;2022-08-19T04:51:06;10.32;;;3.30;;
46042;SDS011;32533;-33.854;18.542;2022-08-19T04:53:35;6.93;;;2.95;;
46042;SDS011;32533;-33.854;18.542;2022-08-19T04:56:05;13.40;;;5.10;;
46042;SDS011;32533;-33.854;18.542;2022-08-19T04:58:43;18.50;;;11.98;;
46042;SDS011;32533;-33.854;18.542;2022-08-19T05:01:14;11.52;;;7.28;;
46042;SDS011;32533;-33.854;18.542;2022-08-19T05:03:45;11.23;;;3.55;;
46042;SDS011;32533;-33.854;18.542;2022-08-19T05:06:13;8.45;;;3.28;;
46042;SDS011;32533;-33.854;18.542;2022-08-19T05:08:42;10.55;;;3.08;;
46042;SDS011;32533;-33.854;18.542;2022-08-19T05:13:37;6.40;;;1.17;;
46042;SDS011;32533;-33.854;18.542;2022-08-19T05:16:04;5.82;;;1.67;;
46042;SDS011;32533;-33.854;18.542;2022-08-19T05:18:31;4.78;;;1.60;;
46042;SDS011;32533;-33.854;18.542;2022-08-19T05:21:17;5.83;;;1.33;;
46042;SDS011;32533;-33.854;18.542;2022-08-19T05:24:03;11.07;;;2.17;;
46042;SDS011;32533;-33.854;18.542;2022-08-19T05:26:41;7.30;;;1.92;;
46042;SDS011;32533;-33.854;18.542;2022-08-19T05:29:19;10.63;;;2.67;;
46042;SDS011;32533;-33.854;18.542;2022-08-19T05:31:47;4.35;;;1.30;;
46042;SDS011;32533;-33.854;18.542;2022-08-19T05:34:17;7.50;;;1.67;;
46042;SDS011;32533;-33.854;18.542;2022-08-19T05:36:53;4.78;;;1.80;;
46042;SDS011;32533;-33.854;18.542;2022-08-19T05:39:23;10.85;;;1.50;;
46042;SDS011;32533;-33.854;18.542;2022-08-19T05:41:53;6.82;;;1.50;;
46042;SDS011;32533;-33.854;18.542;2022-08-19T05:44:25;5.43;;;1.50;;
46042;SDS011;32533;-33.854;18.542;2022-08-19T05:46:57;3.17;;;1.30;;
46042;SDS011;32533;-33.854;18.542;2022-08-19T05:49:25;5.07;;;1.10;;
46042;SDS011;32533;-33.854;18.542;2022-08-19T05:51:52;5.47;;;1.55;;
46042;SDS011;32533;-33.854;18.542;2022-08-19T05:54:21;5.93;;;2.40;;
46042;SDS011;32533;-33.854;18.542;2022-08-19T05:56:49;17.02;;;3.22;;
46042;SDS011;32533;-33.854;18.542;2022-08-19T05:59:17;1.60;;;1.00;;
46042;SDS011;32533;-33.854;18.542;2022-08-19T06:01:45;3.80;;;1.05;;
46042;SDS011;32533;-33.854;18.542;2022-08-19T06:04:16;6.20;;;1.35;;
46042;SDS011;32533;-33.854;18.542;2022-08-19T06:06:48;4.03;;;1.17;;
46042;SDS011;32533;-33.854;18.542;2022-08-19T06:09:16;8.43;;;1.50;;
46042;SDS011;32533;-33.854;18.542;2022-08-19T06:11:45;5.40;;;2.67;;
46042;SDS011;32533;-33.854;18.542;2022-08-19T06:14:15;6.05;;;2.35;;
46042;SDS011;32533;-33.854;18.542;2022-08-19T06:16:43;5.10;;;1.48;;
46042;SDS011;32533;-33.854;18.542;2022-08-19T06:19:12;5.65;;;2.22;;
46042;SDS011;32533;-33.854;18.542;2022-08-19T06:21:42;1.70;;;0.95;;
46042;SDS011;32533;-33.854;18.542;2022-08-19T06:24:11;8.07;;;1.42;;
46042;SDS011;32533;-33.854;18.542;2022-08-19T06:26:40;13.50;;;2.88;;
46042;SDS011;32533;-33.854;18.542;2022-08-19T06:29:09;5.43;;;2.13;;
46042;SDS011;32533;-33.854;18.542;2022-08-19T06:31:40;8.70;;;2.25;;
46042;SDS011;32533;-33.854;18.542;2022-08-19T06:34:12;13.00;;;1.38;;
46042;SDS011;32533;-33.854;18.542;2022-08-19T06:36:47;7.65;;;1.63;;
46042;SDS011;32533;-33.854;18.542;2022-08-19T06:39:24;9.75;;;1.40;;
46042;SDS011;32533;-33.854;18.542;2022-08-19T06:41:54;8.30;;;1.75;;
46042;SDS011;32533;-33.854;18.542;2022-08-19T06:44:25;18.45;;;2.15;;
46042;SDS011;32533;-33.854;18.542;2022-08-19T06:46:54;4.60;;;1.40;;
46042;SDS011;32533;-33.854;18.542;2022-08-19T06:49:22;5.13;;;1.40;;
46042;SDS011;32533;-33.854;18.542;2022-08-19T06:51:49;6.18;;;2.00;;
46042;SDS011;32533;-33.854;18.542;2022-08-19T06:54:16;11.05;;;2.47;;
46042;SDS011;32533;-33.854;18.542;2022-08-19T06:56:44;5.30;;;2.00;;
46042;SDS011;32533;-33.854;18.542;2022-08-19T06:59:12;4.40;;;1.60;;
46042;SDS011;32533;-33.854;18.542;2022-08-19T07:01:45;8.55;;;3.30;;
46042;SDS011;32533;-33.854;18.542;2022-08-19T07:04:14;10.32;;;2.35;;
46042;SDS011;32533;-33.854;18.542;2022-08-19T07:06:43;7.43;;;2.30;;
46042;SDS011;32533;-33.854;18.542;2022-08-19T07:09:14;9.52;;;2.20;;
46042;SDS011;32533;-33.854;18.542;2022-08-19T07:11:45;8.95;;;2.13;;
46042;SDS011;32533;-33.854;18.542;2022-08-19T07:14:18;11.77;;;2.75;;
46042;SDS011;32533;-33.854;18.542;2022-08-19T07:16:48;13.38;;;2.05;;
46042;SDS011;32533;-33.854;18.542;2022-08-19T07:19:17;6.72;;;1.63;;
46042;SDS011;32533;-33.854;18.542;2022-08-19T07:21:45;6.97;;;2.25;;
46042;SDS011;32533;-33.854;18.542;2022-08-19T07:24:12;10.13;;;2.10;;
46042;SDS011;32533;-33.854;18.542;2022-08-19T07:26:41;3.47;;;1.92;;
46042;SDS011;32533;-33.854;18.542;2022-08-19T07:29:10;5.20;;;1.58;;
46042;SDS011;32533;-33.854;18.542;2022-08-19T07:31:37;7.68;;;2.65;;
46042;SDS011;32533;-33.854;18.542;2022-08-19T07:34:05;8.02;;;2.63;;
46042;SDS011;32533;-33.854;18.542;2022-08-19T07:36:35;4.22;;;1.27;;
46042;SDS011;32533;-33.854;18.542;2022-08-19T07:39:05;3.38;;;2.10;;
46042;SDS011;32533;-33.854;18.542;2022-08-19T07:41:43;7.50;;;2.05;;
46042;SDS011;32533;-33.854;18.542;2022-08-19T07:44:10;7.90;;;1.55;;
46042;SDS011;32533;-33.854;18.542;2022-08-19T07:46:40;6.35;;;1.85;;
46042;SDS011;32533;-33.854;18.542;2022-08-19T07:49:10;4.32;;;1.05;;
46042;SDS011;32533;-33.854;18.542;2022-08-19T07:51:48;6.28;;;1.30;;
46042;SDS011;32533;-33.854;18.542;2022-08-19T07:54:18;11.50;;;1.85;;
46042;SDS011;32533;-33.854;18.542;2022-08-19T07:56:46;4.60;;;1.48;;
46042;SDS011;32533;-33.854;18.542;2022-08-19T07:59:12;12.38;;;1.88;;
46042;SDS011;32533;-33.854;18.542;2022-08-19T08:01:39;4.72;;;1.98;;
46042;SDS011;32533;-33.854;18.542;2022-08-19T08:04:06;7.65;;;2.30;;
46042;SDS011;32533;-33.854;18.542;2022-08-19T08:06:51;4.13;;;2.47;;
46042;SDS011;32533;-33.854;18.542;2022-08-19T08:09:38;4.72;;;1.52;;
46042;SDS011;32533;-33.854;18.542;2022-08-19T08:12:08;4.03;;;1.20;;
46042;SDS011;32533;-33.854;18.542;2022-08-19T08:14:56;8.30;;;1.98;;
46042;SDS011;32533;-33.854;18.542;2022-08-19T08:17:27;4.45;;;1.55;;
46042;SDS011;32533;-33.854;18.542;2022-08-19T08:19:55;9.85;;;2.03;;
46042;SDS011;32533;-33.854;18.542;2022-08-19T08:22:23;6.35;;;2.80;;
46042;SDS011;32533;-33.854;18.542;2022-08-19T08:27:39;3.88;;;1.23;;
46042;SDS011;32533;-33.854;18.542;2022-08-19T08:30:07;17.50;;;2.90;;
46042;SDS011;32533;-33.854;18.542;2022-08-19T08:32:36;7.35;;;1.48;;
46042;SDS011;32533;-33.854;18.542;2022-08-19T08:35:05;8.88;;;2.40;;
46042;SDS011;32533;-33.854;18.542;2022-08-19T08:37:35;5.10;;;1.90;;
46042;SDS011;32533;-33.854;18.542;2022-08-19T08:43:07;10.88;;;2.10;;
46042;SDS011;32533;-33.854;18.542;2022-08-19T08:45:52;10.55;;;2.20;;
46042;SDS011;32533;-33.854;18.542;2022-08-19T08:48:46;15.63;;;1.48;;
46042;SDS011;32533;-33.854;18.542;2022-08-19T08:51:44;12.05;;;1.60;;
46042;SDS011;32533;-33.854;18.542;2022-08-19T08:54:31;9.88;;;2.20;;
46042;SDS011;32533;-33.854;18.542;2022-08-19T08:57:02;14.27;;;5.32;;
46042;SDS011;32533;-33.854;18.542;2022-08-19T08:59:36;12.23;;;2.78;;
46042;SDS011;32533;-33.854;18.542;2022-08-19T09:02:07;8.73;;;2.60;;
46042;SDS011;32533;-33.854;18.542;2022-08-19T09:04:34;17.63;;;2.65;;
46042;SDS011;32533;-33.854;18.542;2022-08-19T09:09:42;6.57;;;1.17;;
46042;SDS011;32533;-33.854;18.542;2022-08-19T09:12:31;5.55;;;1.42;;
46042;SDS011;32533;-33.854;18.542;2022-08-19T09:17:48;6.25;;;2.17;;
46042;SDS011;32533;-33.854;18.542;2022-08-19T09:20:19;6.47;;;1.50;;
46042;SDS011;32533;-33.854;18.542;2022-08-19T09:22:48;11.38;;;2.20;;
46042;SDS011;32533;-33.854;18.542;2022-08-19T09:25:17;11.77;;;3.28;;
46042;SDS011;32533;-33.854;18.542;2022-08-19T09:27:47;8.50;;;1.83;;
46042;SDS011;32533;-33.854;18.542;2022-08-19T09:30:19;17.30;;;3.13;;
46042;SDS011;32533;-33.854;18.542;2022-08-19T09:32:49;5.72;;;2.75;;
46042;SDS011;32533;-33.854;18.542;2022-08-19T09:35:18;6.20;;;1.80;;
46042;SDS011;32533;-33.854;18.542;2022-08-19T09:37:49;8.70;;;2.83;;
46042;SDS011;32533;-33.854;18.542;2022-08-19T09:40:16;5.38;;;1.33;;
46042;SDS011;32533;-33.854;18.542;2022-08-19T09:42:46;4.32;;;1.58;;
46042;SDS011;32533;-33.854;18.542;2022-08-19T09:45:13;7.03;;;1.42;;
46042;SDS011;32533;-33.854;18.542;2022-08-19T09:47:42;7.72;;;1.90;;
46042;SDS011;32533;-33.854;18.542;2022-08-19T09:50:10;5.95;;;2.28;;
46042;SDS011;32533;-33.854;18.542;2022-08-19T09:52:37;10.75;;;1.17;;
46042;SDS011;32533;-33.854;18.542;2022-08-19T09:55:05;4.80;;;1.75;;
46042;SDS011;32533;-33.854;18.542;2022-08-19T09:57:34;7.03;;;2.00;;
46042;SDS011;32533;-33.854;18.542;2022-08-19T10:00:01;5.70;;;1.23;;
46042;SDS011;32533;-33.854;18.542;2022-08-19T10:02:29;8.27;;;2.03;;
46042;SDS011;32533;-33.854;18.542;2022-08-19T10:04:55;14.60;;;2.17;;
46042;SDS011;32533;-33.854;18.542;2022-08-19T10:07:40;4.43;;;1.37;;
46042;SDS011;32533;-33.854;18.542;2022-08-19T10:10:07;6.82;;;2.20;;
46042;SDS011;32533;-33.854;18.542;2022-08-19T10:12:34;6.43;;;1.73;;
46042;SDS011;32533;-33.854;18.542;2022-08-19T10:15:02;5.95;;;2.72;;
46042;SDS011;32533;-33.854;18.542;2022-08-19T10:17:31;12.77;;;1.67;;
46042;SDS011;32533;-33.854;18.542;2022-08-19T10:20:00;6.30;;;1.95;;
46042;SDS011;32533;-33.854;18.542;2022-08-19T10:22:29;4.85;;;1.65;;
46042;SDS011;32533;-33.854;18.542;2022-08-19T10:24:56;4.20;;;1.67;;
46042;SDS011;32533;-33.854;18.542;2022-08-19T10:27:22;4.75;;;1.42;;
46042;SDS011;32533;-33.854;18.542;2022-08-19T10:29:49;5.90;;;1.33;;
46042;SDS011;32533;-33.854;18.542;2022-08-19T10:32:16;8.73;;;1.50;;
46042;SDS011;32533;-33.854;18.542;2022-08-19T10:34:42;10.55;;;1.60;;
46042;SDS011;32533;-33.854;18.542;2022-08-19T10:37:09;4.90;;;1.88;;
46042;SDS011;32533;-33.854;18.542;2022-08-19T10:39:36;6.40;;;1.95;;
46042;SDS011;32533;-33.854;18.542;2022-08-19T10:42:06;10.23;;;1.83;;
46042;SDS011;32533;-33.854;18.542;2022-08-19T10:44:35;7.57;;;1.35;;
46042;SDS011;32533;-33.854;18.542;2022-08-19T10:47:02;5.13;;;1.58;;
46042;SDS011;32533;-33.854;18.542;2022-08-19T10:49:29;18.73;;;2.30;;
46042;SDS011;32533;-33.854;18.542;2022-08-19T10:51:57;12.80;;;3.47;;
46042;SDS011;32533;-33.854;18.542;2022-08-19T10:54:42;17.42;;;5.40;;
46042;SDS011;32533;-33.854;18.542;2022-08-19T10:57:30;19.23;;;3.78;;
46042;SDS011;32533;-33.854;18.542;2022-08-19T10:59:57;5.90;;;1.75;;
46042;SDS011;32533;-33.854;18.542;2022-08-19T11:02:23;13.80;;;3.08;;
46042;SDS011;32533;-33.854;18.542;2022-08-19T11:04:50;8.35;;;1.77;;
46042;SDS011;32533;-33.854;18.542;2022-08-19T11:07:17;6.30;;;1.80;;
46042;SDS011;32533;-33.854;18.542;2022-08-19T11:09:43;7.00;;;1.67;;
46042;SDS011;32533;-33.854;18.542;2022-08-19T11:12:11;4.70;;;1.40;;
46042;SDS011;32533;-33.854;18.542;2022-08-19T11:14:38;7.93;;;2.03;;
46042;SDS011;32533;-33.854;18.542;2022-08-19T11:17:05;6.43;;;2.13;;
46042;SDS011;32533;-33.854;18.542;2022-08-19T11:19:32;3.72;;;1.40;;
46042;SDS011;32533;-33.854;18.542;2022-08-19T11:21:59;7.47;;;2.88;;
46042;SDS011;32533;-33.854;18.542;2022-08-19T11:24:28;5.65;;;1.65;;
46042;SDS011;32533;-33.854;18.542;2022-08-19T11:26:55;6.80;;;1.92;;
46042;SDS011;32533;-33.854;18.542;2022-08-19T11:29:29;6.22;;;1.85;;
46042;SDS011;32533;-33.854;18.542;2022-08-19T11:31:57;3.55;;;1.40;;
46042;SDS011;32533;-33.854;18.542;2022-08-19T11:34:25;5.75;;;1.20;;
46042;SDS011;32533;-33.854;18.542;2022-08-19T11:36:54;4.88;;;1.45;;
46042;SDS011;32533;-33.854;18.542;2022-08-19T11:39:25;9.00;;;2.28;;
46042;SDS011;32533;-33.854;18.542;2022-08-19T11:42:30;3.20;;;1.85;;
46042;SDS011;32533;-33.854;18.542;2022-08-19T11:45:15;5.15;;;2.63;;
46042;SDS011;32533;-33.854;18.542;2022-08-19T11:48:21;16.40;;;3.50;;
46042;SDS011;32533;-33.854;18.542;2022-08-19T11:51:28;10.75;;;2.75;;
46042;SDS011;32533;-33.854;18.542;2022-08-19T11:54:34;9.38;;;2.58;;
46042;SDS011;32533;-33.854;18.542;2022-08-19T11:57:40;9.13;;;2.85;;
46042;SDS011;32533;-33.854;18.542;2022-08-19T12:00:46;7.72;;;1.13;;
46042;SDS011;32533;-33.854;18.542;2022-08-19T12:03:53;6.03;;;1.67;;
46042;SDS011;32533;-33.854;18.542;2022-08-19T12:06:58;10.10;;;3.28;;
46042;SDS011;32533;-33.854;18.542;2022-08-19T12:10:04;8.95;;;1.23;;
46042;SDS011;32533;-33.854;18.542;2022-08-19T12:13:11;6.47;;;1.35;;
46042;SDS011;32533;-33.854;18.542;2022-08-19T12:16:18;8.68;;;1.77;;
46042;SDS011;32533;-33.854;18.542;2022-08-19T12:19:23;9.90;;;2.00;;
46042;SDS011;32533;-33.854;18.542;2022-08-19T12:22:29;7.93;;;2.55;;
46042;SDS011;32533;-33.854;18.542;2022-08-19T12:25:35;14.85;;;5.07;;
46042;SDS011;32533;-33.854;18.542;2022-08-19T12:28:41;10.18;;;2.22;;
46042;SDS011;32533;-33.854;18.542;2022-08-19T12:31:54;6.07;;;1.52;;
46042;SDS011;32533;-33.854;18.542;2022-08-19T12:34:59;10.02;;;2.03;;
46042;SDS011;32533;-33.854;18.542;2022-08-19T12:38:06;2.95;;;1.20;;
46042;SDS011;32533;-33.854;18.542;2022-08-19T12:41:13;5.53;;;2.78;;
46042;SDS011;32533;-33.854;18.542;2022-08-19T12:44:18;6.90;;;1.40;;
46042;SDS011;32533;-33.854;18.542;2022-08-19T12:47:24;4.72;;;1.90;;
46042;SDS011;32533;-33.854;18.542;2022-08-19T12:50:30;5.60;;;2.90;;
46042;SDS011;32533;-33.854;18.542;2022-08-19T12:53:37;6.60;;;2.75;;
46042;SDS011;32533;-33.854;18.542;2022-08-19T12:56:43;6.57;;;1.30;;
46042;SDS011;32533;-33.854;18.542;2022-08-19T12:59:53;4.30;;;1.85;;
46042;SDS011;32533;-33.854;18.542;2022-08-19T13:02:59;8.27;;;1.73;;
46042;SDS011;32533;-33.854;18.542;2022-08-19T13:06:05;6.03;;;1.35;;
46042;SDS011;32533;-33.854;18.542;2022-08-19T13:09:11;2.60;;;1.02;;
46042;SDS011;32533;-33.854;18.542;2022-08-19T13:12:17;8.15;;;1.13;;
46042;SDS011;32533;-33.854;18.542;2022-08-19T13:15:24;8.68;;;2.13;;
46042;SDS011;32533;-33.854;18.542;2022-08-19T13:18:34;4.32;;;1.35;;
46042;SDS011;32533;-33.854;18.542;2022-08-19T13:21:40;4.03;;;1.88;;
46042;SDS011;32533;-33.854;18.542;2022-08-19T13:24:47;8.40;;;1.80;;
46042;SDS011;32533;-33.854;18.542;2022-08-19T13:27:53;5.80;;;1.55;;
46042;SDS011;32533;-33.854;18.542;2022-08-19T13:31:18;4.35;;;1.63;;
46042;SDS011;32533;-33.854;18.542;2022-08-19T13:34:41;5.82;;;1.75;;
46042;SDS011;32533;-33.854;18.542;2022-08-19T13:37:47;4.28;;;1.60;;
46042;SDS011;32533;-33.854;18.542;2022-08-19T13:40:15;9.23;;;1.25;;
46042;SDS011;32533;-33.854;18.542;2022-08-19T13:42:47;10.82;;;3.03;;
46042;SDS011;32533;-33.854;18.542;2022-08-19T13:45:18;11.63;;;5.78;;
46042;SDS011;32533;-33.854;18.542;2022-08-19T13:47:47;10.57;;;3.80;;
46042;SDS011;32533;-33.854;18.542;2022-08-19T13:50:16;5.63;;;2.10;;
46042;SDS011;32533;-33.854;18.542;2022-08-19T13:52:45;4.40;;;2.22;;
46042;SDS011;32533;-33.854;18.542;2022-08-19T13:55:12;5.18;;;1.77;;
46042;SDS011;32533;-33.854;18.542;2022-08-19T13:57:40;8.13;;;1.65;;
46042;SDS011;32533;-33.854;18.542;2022-08-19T14:00:09;6.45;;;2.08;;
46042;SDS011;32533;-33.854;18.542;2022-08-19T14:05:11;6.57;;;2.17;;
46042;SDS011;32533;-33.854;18.542;2022-08-19T14:07:39;4.70;;;2.38;;
46042;SDS011;32533;-33.854;18.542;2022-08-19T14:10:07;7.05;;;1.65;;
46042;SDS011;32533;-33.854;18.542;2022-08-19T14:12:35;9.25;;;1.92;;
46042;SDS011;32533;-33.854;18.542;2022-08-19T14:15:02;3.03;;;1.10;;
46042;SDS011;32533;-33.854;18.542;2022-08-19T14:17:31;10.98;;;7.10;;
46042;SDS011;32533;-33.854;18.542;2022-08-19T14:20:01;12.05;;;6.13;;
46042;SDS011;32533;-33.854;18.542;2022-08-19T14:22:32;6.18;;;2.90;;
46042;SDS011;32533;-33.854;18.542;2022-08-19T14:24:59;6.07;;;2.28;;
46042;SDS011;32533;-33.854;18.542;2022-08-19T14:27:26;6.55;;;3.22;;
46042;SDS011;32533;-33.854;18.542;2022-08-19T14:29:52;3.38;;;1.58;;
46042;SDS011;32533;-33.854;18.542;2022-08-19T14:32:20;5.63;;;1.52;;
46042;SDS011;32533;-33.854;18.542;2022-08-19T14:34:46;6.50;;;2.20;;
46042;SDS011;32533;-33.854;18.542;2022-08-19T14:37:13;7.03;;;1.75;;
46042;SDS011;32533;-33.854;18.542;2022-08-19T14:39:43;20.83;;;8.55;;
46042;SDS011;32533;-33.854;18.542;2022-08-19T14:42:12;16.75;;;10.25;;
46042;SDS011;32533;-33.854;18.542;2022-08-19T14:44:39;7.63;;;3.22;;
46042;SDS011;32533;-33.854;18.542;2022-08-19T14:47:06;12.45;;;3.47;;
46042;SDS011;32533;-33.854;18.542;2022-08-19T14:49:33;26.17;;;17.45;;
46042;SDS011;32533;-33.854;18.542;2022-08-19T14:52:00;16.70;;;10.60;;
46042;SDS011;32533;-33.854;18.542;2022-08-19T14:54:28;14.32;;;5.22;;
46042;SDS011;32533;-33.854;18.542;2022-08-19T14:56:55;39.15;;;3.22;;
46042;SDS011;32533;-33.854;18.542;2022-08-19T14:59:21;13.00;;;2.58;;
46042;SDS011;32533;-33.854;18.542;2022-08-19T15:01:48;2.97;;;1.42;;
46042;SDS011;32533;-33.854;18.542;2022-08-19T15:04:14;6.10;;;1.70;;
46042;SDS011;32533;-33.854;18.542;2022-08-19T15:06:41;13.43;;;3.90;;
46042;SDS011;32533;-33.854;18.542;2022-08-19T15:09:08;11.38;;;4.88;;
46042;SDS011;32533;-33.854;18.542;2022-08-19T15:11:35;10.32;;;3.15;;
46042;SDS011;32533;-33.854;18.542;2022-08-19T15:14:03;12.30;;;2.28;;
46042;SDS011;32533;-33.854;18.542;2022-08-19T15:16:31;16.05;;;2.47;;
46042;SDS011;32533;-33.854;18.542;2022-08-19T15:18:58;7.20;;;2.47;;